Time;durP1;ratioP1;P1;durP2;ratioP2;P2;SDS_P1;SDS_P2;PMS_P1;PMS_P2;Temp;Humidity;BMP_temperature;BMP_pressure;BME280_temperature;BME280_humidity;BME280_pressure;Samples;Min_cycle;Max_cycle;Signal;HPM_P1;HPM_P2
2022/01/12 00:01:00;;;;;;;14.40;6.28;;;;;;;;;;5044087;28;20029;-62
2022/01/12 00:03:25;;;;;;;11.27;6.20;;;;;;;;;;5040918;28;20047;-63
2022/01/12 00:05:51;;;;;;;16.90;6.38;;;;;;;;;;5043773;28;20033;-64
2022/01/12 00:08:17;;;;;;;12.65;6.13;;;;;;;;;;5046897;28;20028;-62
2022/01/12 00:10:43;;;;;;;12.35;6.47;;;;;;;;;;5061975;28;20040;-64
2022/01/12 00:13:09;;;;;;;13.98;6.80;;;;;;;;;;5049857;28;20063;-65
2022/01/12 00:15:35;;;;;;;13.00;6.25;;;;;;;;;;5052337;28;20041;-63
2022/01/12 00:18:00;;;;;;;11.85;6.25;;;;;;;;;;5049831;28;20106;-63
2022/01/12 00:20:25;;;;;;;12.40;5.93;;;;;;;;;;5034929;28;20448;-63
2022/01/12 00:22:52;;;;;;;11.85;6.20;;;;;;;;;;5038940;28;20034;-63
2022/01/12 00:33:16;;;;;;;14.70;5.50;;;;;;;;;;5033523;28;20040;-63
2022/01/12 00:35:56;;;;;;;12.88;5.10;;;;;;;;;;5056166;28;20029;-63
2022/01/12 00:38:25;;;;;;;10.13;4.88;;;;;;;;;;5041168;28;20025;-64
2022/01/12 00:40:52;;;;;;;9.82;4.88;;;;;;;;;;5044076;28;20471;-63
2022/01/12 00:43:19;;;;;;;9.75;4.50;;;;;;;;;;5051305;28;20037;-64
2022/01/12 00:45:46;;;;;;;10.50;4.70;;;;;;;;;;5034728;28;20037;-64
2022/01/12 00:48:13;;;;;;;7.55;4.25;;;;;;;;;;5052629;28;20040;-64
2022/01/12 00:50:39;;;;;;;9.73;4.50;;;;;;;;;;5052023;28;20122;-63
2022/01/12 00:53:05;;;;;;;9.43;4.70;;;;;;;;;;5037116;28;20037;-63
2022/01/12 00:55:32;;;;;;;11.18;4.55;;;;;;;;;;5041501;28;20059;-64
2022/01/12 00:57:58;;;;;;;10.25;4.82;;;;;;;;;;5054390;28;20033;-63
2022/01/12 01:00:25;;;;;;;10.13;4.57;;;;;;;;;;5035184;28;20091;-63
2022/01/12 01:02:51;;;;;;;10.38;4.82;;;;;;;;;;5034397;28;20029;-64
2022/01/12 01:05:20;;;;;;;8.50;4.55;;;;;;;;;;5033120;28;20141;-64
2022/01/12 01:07:46;;;;;;;10.25;4.50;;;;;;;;;;5040648;28;20036;-64
2022/01/12 01:10:17;;;;;;;8.27;4.05;;;;;;;;;;5049662;28;20382;-65
2022/01/12 01:12:45;;;;;;;9.73;4.55;;;;;;;;;;5037698;28;20111;-63
2022/01/12 01:15:14;;;;;;;9.75;4.82;;;;;;;;;;5051498;28;20049;-65
2022/01/12 01:25:48;;;;;;;11.23;5.20;;;;;;;;;;5052263;28;20043;-63
2022/01/12 01:28:15;;;;;;;11.68;5.00;;;;;;;;;;5059089;28;20036;-66
2022/01/12 01:30:43;;;;;;;9.32;4.88;;;;;;;;;;5063878;28;20116;-63
2022/01/12 01:33:10;;;;;;;9.95;4.97;;;;;;;;;;5056011;28;20032;-63
2022/01/12 01:35:39;;;;;;;11.20;5.28;;;;;;;;;;5050196;28;20043;-63
2022/01/12 01:38:05;;;;;;;10.07;5.25;;;;;;;;;;5034782;28;20033;-63
2022/01/12 01:40:33;;;;;;;11.45;5.40;;;;;;;;;;5040155;28;20039;-63
2022/01/12 01:53:45;;;;;;;10.70;4.53;;;;;;;;;;5033375;28;20040;-64
2022/01/12 01:56:11;;;;;;;11.35;4.57;;;;;;;;;;5033141;28;20029;-64
2022/01/12 01:58:37;;;;;;;9.38;4.20;;;;;;;;;;5032655;28;20033;-63
2022/01/12 02:01:04;;;;;;;11.27;4.45;;;;;;;;;;5034696;28;20040;-63
2022/01/12 02:03:30;;;;;;;8.80;4.47;;;;;;;;;;5048915;28;20048;-64
2022/01/12 02:05:56;;;;;;;9.77;4.22;;;;;;;;;;5050402;28;20029;-64
2022/01/12 02:08:22;;;;;;;10.68;4.25;;;;;;;;;;5048371;28;20037;-64
2022/01/12 02:10:58;;;;;;;10.43;4.53;;;;;;;;;;5051059;28;20029;-63
2022/01/12 02:13:24;;;;;;;7.40;3.58;;;;;;;;;;5037402;28;20033;-63
2022/01/12 02:15:51;;;;;;;8.55;4.07;;;;;;;;;;5032999;28;20097;-64
2022/01/12 02:40:08;;;;;;;8.68;4.05;;;;;;;;;;5047809;28;20044;-64
2022/01/12 02:42:34;;;;;;;8.02;3.83;;;;;;;;;;5056229;28;20130;-64
2022/01/12 02:55:46;;;;;;;8.30;4.03;;;;;;;;;;5042152;28;20064;-63
2022/01/12 02:58:11;;;;;;;8.07;3.92;;;;;;;;;;5047263;28;20037;-65
2022/01/12 03:03:30;;;;;;;7.65;3.95;;;;;;;;;;5039773;28;20052;-64
2022/01/12 03:05:59;;;;;;;9.07;4.10;;;;;;;;;;5051120;28;20039;-64
2022/01/12 03:08:26;;;;;;;9.00;4.32;;;;;;;;;;5050012;28;20048;-64
2022/01/12 03:10:52;;;;;;;8.82;4.43;;;;;;;;;;5048508;28;20025;-64
2022/01/12 03:13:19;;;;;;;10.73;4.28;;;;;;;;;;5051069;28;20418;-65
2022/01/12 03:15:47;;;;;;;9.25;4.43;;;;;;;;;;5038795;28;20036;-64
2022/01/12 03:18:13;;;;;;;11.23;4.10;;;;;;;;;;5041471;28;20029;-64
2022/01/12 03:20:38;;;;;;;10.95;4.53;;;;;;;;;;5032640;28;20097;-64
2022/01/12 03:23:04;;;;;;;8.02;4.60;;;;;;;;;;5050564;28;20033;-64
2022/01/12 03:25:29;;;;;;;9.57;4.03;;;;;;;;;;5039720;28;20069;-63
2022/01/12 03:27:59;;;;;;;11.50;5.55;;;;;;;;;;5049779;28;20100;-64
2022/01/12 03:30:24;;;;;;;11.23;6.03;;;;;;;;;;5047010;28;20120;-64
2022/01/12 03:33:04;;;;;;;9.52;4.43;;;;;;;;;;5041699;28;20117;-64
2022/01/12 03:35:48;;;;;;;9.82;4.78;;;;;;;;;;5036056;28;20580;-64
2022/01/12 03:38:20;;;;;;;11.75;6.05;;;;;;;;;;5039354;28;20079;-64
2022/01/12 03:40:47;;;;;;;9.80;4.50;;;;;;;;;;5046974;28;20032;-64
2022/01/12 03:43:12;;;;;;;10.07;4.65;;;;;;;;;;5046209;28;20034;-64
2022/01/12 03:45:38;;;;;;;11.52;5.53;;;;;;;;;;5041215;28;20048;-64
2022/01/12 03:48:04;;;;;;;10.23;5.43;;;;;;;;;;5038616;28;20033;-64
2022/01/12 03:50:29;;;;;;;9.77;4.63;;;;;;;;;;5040122;28;20082;-64
2022/01/12 03:52:55;;;;;;;8.68;3.90;;;;;;;;;;5047327;28;20044;-64
2022/01/12 03:55:20;;;;;;;9.82;3.67;;;;;;;;;;5049004;28;20069;-66
2022/01/12 03:57:46;;;;;;;9.20;4.40;;;;;;;;;;5059480;28;20067;-64
2022/01/12 04:00:12;;;;;;;8.52;4.47;;;;;;;;;;5047674;28;20025;-64
2022/01/12 04:02:39;;;;;;;9.18;3.85;;;;;;;;;;5049622;28;20040;-64
2022/01/12 04:05:26;;;;;;;9.00;4.53;;;;;;;;;;5066069;28;20039;-64
2022/01/12 04:10:35;;;;;;;15.07;7.30;;;;;;;;;;5042889;28;20506;-64
2022/01/12 04:13:01;;;;;;;13.88;7.10;;;;;;;;;;5039347;28;20033;-64
2022/01/12 04:15:27;;;;;;;10.98;5.32;;;;;;;;;;5037214;28;20446;-65
2022/01/12 04:17:52;;;;;;;9.75;4.80;;;;;;;;;;5058785;28;20503;-64
2022/01/12 04:20:18;;;;;;;10.52;4.32;;;;;;;;;;5049277;28;20108;-64
2022/01/12 04:25:27;;;;;;;12.60;5.03;;;;;;;;;;5032311;28;20064;-65
2022/01/12 04:27:53;;;;;;;9.88;4.38;;;;;;;;;;5045616;28;20632;-64
2022/01/12 04:30:18;;;;;;;12.77;5.30;;;;;;;;;;5047973;28;20484;-65
2022/01/12 04:32:44;;;;;;;14.35;5.75;;;;;;;;;;5049176;28;20943;-64
2022/01/12 04:35:11;;;;;;;10.00;4.90;;;;;;;;;;5052748;28;20032;-64
2022/01/12 04:37:37;;;;;;;11.00;5.43;;;;;;;;;;5050342;28;20037;-64
2022/01/12 04:40:04;;;;;;;10.57;5.03;;;;;;;;;;5044057;28;20376;-64
2022/01/12 04:42:29;;;;;;;10.35;5.43;;;;;;;;;;5045909;28;20041;-64
2022/01/12 04:45:02;;;;;;;11.77;4.72;;;;;;;;;;5039356;28;20028;-64
2022/01/12 04:50:13;;;;;;;9.35;4.65;;;;;;;;;;5034663;28;20108;-64
2022/01/12 04:52:39;;;;;;;9.55;5.00;;;;;;;;;;5038261;28;20029;-64
2022/01/12 04:55:04;;;;;;;10.10;5.00;;;;;;;;;;5053190;28;20025;-64
2022/01/12 04:57:30;;;;;;;9.93;4.75;;;;;;;;;;5052125;28;20120;-64
2022/01/12 05:00:09;;;;;;;12.52;5.22;;;;;;;;;;5047880;28;20038;-65
2022/01/12 05:08:20;;;;;;;13.43;5.25;;;;;;;;;;5053612;28;20107;-64
2022/01/12 05:13:32;;;;;;;9.80;4.88;;;;;;;;;;5043119;28;20040;-64
2022/01/12 05:15:58;;;;;;;11.32;5.03;;;;;;;;;;5041592;28;20037;-64
2022/01/12 05:18:24;;;;;;;12.70;5.70;;;;;;;;;;5042345;28;20065;-66
2022/01/12 05:20:49;;;;;;;13.10;5.65;;;;;;;;;;5051382;28;20071;-64
2022/01/12 05:23:15;;;;;;;12.07;6.13;;;;;;;;;;5058190;28;20036;-64
2022/01/12 05:25:41;;;;;;;15.73;7.53;;;;;;;;;;5039421;28;20029;-65
2022/01/12 05:28:06;;;;;;;12.73;6.57;;;;;;;;;;5051463;28;20499;-64
2022/01/12 05:30:32;;;;;;;16.35;7.57;;;;;;;;;;5043903;28;20025;-65
2022/01/12 05:32:59;;;;;;;15.82;7.55;;;;;;;;;;5036974;28;20117;-65
2022/01/12 05:35:30;;;;;;;12.63;6.10;;;;;;;;;;5048988;28;20485;-66
2022/01/12 05:37:56;;;;;;;14.45;6.07;;;;;;;;;;5032138;28;20501;-65
2022/01/12 05:40:22;;;;;;;17.92;8.82;;;;;;;;;;5051781;28;20738;-64
2022/01/12 05:42:49;;;;;;;13.43;6.47;;;;;;;;;;5053459;28;20024;-64
2022/01/12 05:45:18;;;;;;;24.75;12.15;;;;;;;;;;5048444;28;20033;-64
2022/01/12 05:50:12;;;;;;;18.17;6.65;;;;;;;;;;5054256;28;20029;-64
2022/01/12 05:52:38;;;;;;;15.23;9.05;;;;;;;;;;5049066;28;20036;-64
2022/01/12 05:55:05;;;;;;;18.88;8.48;;;;;;;;;;5061175;28;20107;-64
2022/01/12 05:57:31;;;;;;;13.73;6.70;;;;;;;;;;5052542;28;20025;-65
2022/01/12 06:00:00;;;;;;;15.13;6.82;;;;;;;;;;5053943;28;20115;-64
2022/01/12 06:02:25;;;;;;;14.57;7.70;;;;;;;;;;5055366;28;20076;-63
2022/01/12 06:04:51;;;;;;;17.17;7.13;;;;;;;;;;5050239;28;20068;-63
2022/01/12 06:07:17;;;;;;;15.50;7.05;;;;;;;;;;5053988;28;20449;-63
2022/01/12 06:09:42;;;;;;;14.98;6.97;;;;;;;;;;5052082;28;20024;-64
2022/01/12 06:12:08;;;;;;;14.80;7.32;;;;;;;;;;5055926;28;20025;-64
2022/01/12 06:14:34;;;;;;;18.42;7.13;;;;;;;;;;5066913;28;20092;-65
2022/01/12 06:16:59;;;;;;;14.00;7.00;;;;;;;;;;5068882;28;20386;-63
2022/01/12 06:19:25;;;;;;;14.98;7.20;;;;;;;;;;5060661;28;20031;-63
2022/01/12 06:21:50;;;;;;;15.65;7.10;;;;;;;;;;5067249;28;20029;-64
2022/01/12 06:24:16;;;;;;;13.05;7.05;;;;;;;;;;5072247;28;20032;-65
2022/01/12 06:26:43;;;;;;;16.15;7.35;;;;;;;;;;5070717;28;20037;-64
2022/01/12 06:31:38;;;;;;;13.02;6.65;;;;;;;;;;5071153;28;20085;-65
2022/01/12 06:34:04;;;;;;;13.57;7.22;;;;;;;;;;5053282;28;20532;-64
2022/01/12 06:36:29;;;;;;;19.13;7.97;;;;;;;;;;5051049;28;20033;-66
2022/01/12 06:38:54;;;;;;;15.75;7.35;;;;;;;;;;5070783;28;20115;-65
2022/01/12 06:41:20;;;;;;;15.15;7.07;;;;;;;;;;5056690;28;20033;-65
2022/01/12 06:43:46;;;;;;;14.07;6.68;;;;;;;;;;5051675;28;20057;-66
2022/01/12 06:46:15;;;;;;;15.00;7.03;;;;;;;;;;5053151;28;20028;-64
2022/01/12 06:48:40;;;;;;;18.95;8.07;;;;;;;;;;5050892;28;20482;-65
2022/01/12 06:51:06;;;;;;;15.32;7.32;;;;;;;;;;5062973;28;20035;-65
2022/01/12 06:53:35;;;;;;;17.92;8.15;;;;;;;;;;5071652;28;20060;-66
2022/01/12 06:56:01;;;;;;;17.85;8.38;;;;;;;;;;5060460;28;20398;-63
2022/01/12 06:58:26;;;;;;;14.30;7.78;;;;;;;;;;5049907;28;20036;-63
2022/01/12 07:00:52;;;;;;;14.70;7.90;;;;;;;;;;5049954;28;20114;-65
2022/01/12 07:03:17;;;;;;;15.38;8.15;;;;;;;;;;5049851;28;20057;-65
2022/01/12 07:05:43;;;;;;;18.15;8.10;;;;;;;;;;5057939;28;20032;-65
2022/01/12 07:08:08;;;;;;;16.33;8.35;;;;;;;;;;5063650;28;20036;-63
2022/01/12 07:10:34;;;;;;;14.95;8.27;;;;;;;;;;5033735;28;20034;-66
2022/01/12 07:12:59;;;;;;;18.52;8.00;;;;;;;;;;5044373;28;20475;-64
2022/01/12 07:15:25;;;;;;;19.27;8.10;;;;;;;;;;5069984;28;20068;-63
2022/01/12 07:17:52;;;;;;;18.90;8.35;;;;;;;;;;5045827;28;20106;-65
2022/01/12 07:20:17;;;;;;;18.35;8.02;;;;;;;;;;5071618;28;20468;-63
2022/01/12 07:22:43;;;;;;;18.27;8.15;;;;;;;;;;5065479;28;20033;-64
2022/01/12 07:25:09;;;;;;;17.15;8.30;;;;;;;;;;5037799;28;20399;-65
2022/01/12 07:27:34;;;;;;;17.30;8.30;;;;;;;;;;5050342;28;20029;-64
2022/01/12 07:30:00;;;;;;;18.88;8.57;;;;;;;;;;5051422;28;20063;-63
2022/01/12 07:32:27;;;;;;;18.95;9.50;;;;;;;;;;5071222;28;20035;-65
2022/01/12 07:34:53;;;;;;;20.35;8.60;;;;;;;;;;5069360;28;20459;-65
2022/01/12 07:37:18;;;;;;;18.27;7.88;;;;;;;;;;5069424;28;20051;-65
2022/01/12 07:39:44;;;;;;;20.65;7.40;;;;;;;;;;5068494;28;20032;-65
2022/01/12 07:42:11;;;;;;;19.63;8.32;;;;;;;;;;5041634;28;20028;-63
2022/01/12 07:44:36;;;;;;;21.83;9.20;;;;;;;;;;5066218;28;20037;-65
2022/01/12 07:47:02;;;;;;;22.40;9.00;;;;;;;;;;5053930;28;20052;-66
2022/01/12 07:49:28;;;;;;;17.20;8.15;;;;;;;;;;5056081;28;20075;-63
2022/01/12 07:51:53;;;;;;;23.33;9.75;;;;;;;;;;5050616;28;20079;-64
2022/01/12 07:54:18;;;;;;;22.10;9.48;;;;;;;;;;5049581;28;20040;-65
2022/01/12 07:56:44;;;;;;;22.02;9.68;;;;;;;;;;5031275;28;20033;-63
2022/01/12 07:59:09;;;;;;;19.95;9.48;;;;;;;;;;5051495;28;20036;-65
2022/01/12 08:01:34;;;;;;;22.52;10.00;;;;;;;;;;5052177;28;20478;-65
2022/01/12 08:04:00;;;;;;;23.65;9.02;;;;;;;;;;5052709;28;20039;-64
2022/01/12 08:06:25;;;;;;;20.67;9.73;;;;;;;;;;5051186;28;20029;-63
2022/01/12 08:08:51;;;;;;;19.08;9.07;;;;;;;;;;5055261;28;20107;-63
2022/01/12 08:11:16;;;;;;;30.13;10.63;;;;;;;;;;5074408;28;20033;-64
2022/01/12 08:13:45;;;;;;;22.52;9.93;;;;;;;;;;5066140;28;20205;-65
2022/01/12 08:16:10;;;;;;;19.92;8.73;;;;;;;;;;5074918;28;20493;-63
2022/01/12 08:18:38;;;;;;;22.42;9.98;;;;;;;;;;5064373;28;20029;-64
2022/01/12 08:21:06;;;;;;;22.20;10.02;;;;;;;;;;5054412;28;20252;-65
2022/01/12 08:23:31;;;;;;;25.25;10.30;;;;;;;;;;5055313;28;20045;-66
2022/01/12 08:25:56;;;;;;;24.98;10.77;;;;;;;;;;5053953;28;20037;-65
2022/01/12 08:28:22;;;;;;;24.40;10.52;;;;;;;;;;5055035;28;20033;-65
2022/01/12 08:30:47;;;;;;;29.27;10.32;;;;;;;;;;5039969;28;20084;-63
2022/01/12 08:33:15;;;;;;;22.70;10.50;;;;;;;;;;5058766;28;20025;-64
2022/01/12 08:35:41;;;;;;;25.75;10.80;;;;;;;;;;5036300;28;20036;-64
2022/01/12 08:38:06;;;;;;;23.25;11.13;;;;;;;;;;5067286;28;20028;-63
2022/01/12 08:40:32;;;;;;;26.98;11.35;;;;;;;;;;5073540;28;20036;-64
2022/01/12 08:42:57;;;;;;;23.85;10.63;;;;;;;;;;5053347;28;20021;-64
2022/01/12 08:45:23;;;;;;;29.80;11.35;;;;;;;;;;5052868;28;20390;-62
2022/01/12 08:47:48;;;;;;;21.08;10.73;;;;;;;;;;5052081;28;20116;-64
2022/01/12 08:50:14;;;;;;;22.85;10.43;;;;;;;;;;5047161;28;20044;-64
2022/01/12 08:52:45;;;;;;;24.15;10.68;;;;;;;;;;5046999;28;20086;-64
2022/01/12 08:55:12;;;;;;;24.45;10.50;;;;;;;;;;5054024;28;20107;-63
2022/01/12 08:57:37;;;;;;;20.58;10.10;;;;;;;;;;5064978;28;20500;-62
2022/01/12 09:00:06;;;;;;;20.77;10.65;;;;;;;;;;5073633;28;20032;-63
2022/01/12 09:02:31;;;;;;;22.52;10.25;;;;;;;;;;5057329;28;20021;-65
2022/01/12 09:04:56;;;;;;;21.27;11.15;;;;;;;;;;5032887;28;20112;-65
2022/01/12 09:07:22;;;;;;;24.27;11.35;;;;;;;;;;5036647;28;20079;-65
2022/01/12 09:09:47;;;;;;;21.60;11.45;;;;;;;;;;5038285;28;20073;-65
2022/01/12 09:12:13;;;;;;;25.40;12.13;;;;;;;;;;5072106;28;20399;-64
2022/01/12 09:14:38;;;;;;;27.55;11.80;;;;;;;;;;5070501;28;20057;-64
2022/01/12 09:17:12;;;;;;;27.63;12.30;;;;;;;;;;5053829;28;20486;-65
2022/01/12 09:19:38;;;;;;;22.50;11.80;;;;;;;;;;5037249;28;20479;-65
2022/01/12 09:22:03;;;;;;;32.50;14.70;;;;;;;;;;5042749;28;20074;-64
2022/01/12 09:24:29;;;;;;;34.08;14.45;;;;;;;;;;5034056;28;20471;-63
2022/01/12 09:26:54;;;;;;;33.20;14.25;;;;;;;;;;5051608;28;20033;-66
2022/01/12 09:29:19;;;;;;;34.67;14.82;;;;;;;;;;5052431;28;20025;-69
2022/01/12 09:31:46;;;;;;;36.58;16.55;;;;;;;;;;5054166;28;20098;-69
2022/01/12 09:34:11;;;;;;;36.75;16.25;;;;;;;;;;5053418;28;20033;-69
2022/01/12 09:36:37;;;;;;;34.50;15.98;;;;;;;;;;5059345;28;20071;-63
2022/01/12 09:39:03;;;;;;;45.45;16.90;;;;;;;;;;5065919;28;20029;-70
2022/01/12 09:41:28;;;;;;;30.60;15.18;;;;;;;;;;5073257;28;20111;-65
2022/01/12 09:43:54;;;;;;;35.17;14.77;;;;;;;;;;5071407;28;20193;-65
2022/01/12 09:46:23;;;;;;;32.40;14.02;;;;;;;;;;5073400;28;20032;-65
2022/01/12 09:48:49;;;;;;;36.92;15.90;;;;;;;;;;5069351;28;20036;-65
2022/01/12 09:51:15;;;;;;;39.38;15.48;;;;;;;;;;5060788;28;20041;-65
2022/01/12 09:53:41;;;;;;;33.90;15.60;;;;;;;;;;5043709;28;20036;-65
2022/01/12 09:56:24;;;;;;;34.22;15.32;;;;;;;;;;5053077;28;20033;-66
2022/01/12 09:58:51;;;;;;;37.08;15.32;;;;;;;;;;5070386;28;20145;-65
2022/01/12 10:01:29;;;;;;;38.35;16.25;;;;;;;;;;5071674;28;20453;-63
2022/01/12 10:04:16;;;;;;;34.65;15.93;;;;;;;;;;5053027;28;20045;-66
2022/01/12 10:06:47;;;;;;;34.42;14.63;;;;;;;;;;5049396;28;20474;-64
2022/01/12 10:09:14;;;;;;;36.25;15.60;;;;;;;;;;5032628;28;20037;-65
2022/01/12 10:11:57;;;;;;;37.67;15.30;;;;;;;;;;5031854;28;20616;-66
2022/01/12 10:14:23;;;;;;;42.20;17.42;;;;;;;;;;5072463;28;20072;-65
2022/01/12 10:16:57;;;;;;;41.95;16.85;;;;;;;;;;5069998;28;20032;-64
2022/01/12 10:19:32;;;;;;;37.58;16.60;;;;;;;;;;5051513;28;20029;-65
2022/01/12 10:21:59;;;;;;;43.33;17.65;;;;;;;;;;5045948;28;20032;-64
2022/01/12 10:24:26;;;;;;;49.45;16.75;;;;;;;;;;5053317;28;20088;-63
2022/01/12 10:26:52;;;;;;;43.08;16.88;;;;;;;;;;5053537;28;20041;-65
2022/01/12 10:29:24;;;;;;;36.00;15.93;;;;;;;;;;5052950;28;20032;-65
2022/01/12 10:31:58;;;;;;;48.65;18.15;;;;;;;;;;5054270;28;20036;-63
2022/01/12 10:34:27;;;;;;;45.90;17.65;;;;;;;;;;5072150;28;20032;-64
2022/01/12 10:36:54;;;;;;;45.15;17.27;;;;;;;;;;5059005;28;20389;-64
2022/01/12 10:39:22;;;;;;;48.97;17.15;;;;;;;;;;5048276;28;20044;-64
2022/01/12 10:42:17;;;;;;;42.40;18.00;;;;;;;;;;5048920;28;20385;-65
2022/01/12 10:44:53;;;;;;;51.90;19.48;;;;;;;;;;5050615;28;20470;-65
2022/01/12 10:47:23;;;;;;;59.90;20.45;;;;;;;;;;5039831;28;20040;-66
2022/01/12 10:49:52;;;;;;;62.08;21.35;;;;;;;;;;5038156;28;20032;-65
2022/01/12 10:52:18;;;;;;;62.85;21.58;;;;;;;;;;5055430;28;20136;-65
2022/01/12 10:54:52;;;;;;;57.70;22.00;;;;;;;;;;5038681;28;20522;-65
2022/01/12 10:57:24;;;;;;;57.65;21.40;;;;;;;;;;5042940;28;20032;-65
2022/01/12 11:00:09;;;;;;;66.93;21.33;;;;;;;;;;5051150;28;20090;-64
2022/01/12 11:02:38;;;;;;;54.50;20.33;;;;;;;;;;5046898;28;20064;-63
2022/01/12 11:05:05;;;;;;;56.42;19.52;;;;;;;;;;5030477;28;20391;-64
2022/01/12 11:07:31;;;;;;;56.60;20.70;;;;;;;;;;5045600;28;20033;-65
2022/01/12 11:09:59;;;;;;;50.13;19.27;;;;;;;;;;5051611;28;20029;-66
2022/01/12 11:12:25;;;;;;;55.30;19.13;;;;;;;;;;5051906;28;20056;-62
2022/01/12 11:14:51;;;;;;;70.35;22.60;;;;;;;;;;5050598;28;20044;-64
2022/01/12 11:17:17;;;;;;;67.63;21.60;;;;;;;;;;5052138;28;20067;-65
2022/01/12 11:19:52;;;;;;;65.05;21.85;;;;;;;;;;5031001;28;20410;-65
2022/01/12 11:22:36;;;;;;;65.15;22.25;;;;;;;;;;5071199;28;20089;-65
2022/01/12 11:25:02;;;;;;;56.10;20.10;;;;;;;;;;5060893;28;20029;-65
2022/01/12 11:27:28;;;;;;;61.03;21.58;;;;;;;;;;5049500;28;20376;-65
2022/01/12 11:29:53;;;;;;;68.40;22.00;;;;;;;;;;5055532;28;20055;-65
2022/01/12 11:32:25;;;;;;;58.78;20.35;;;;;;;;;;5050978;28;20037;-65
2022/01/12 11:35:06;;;;;;;58.28;19.55;;;;;;;;;;5056512;28;20021;-66
2022/01/12 11:37:31;;;;;;;55.25;19.33;;;;;;;;;;5071353;28;20119;-64
2022/01/12 11:40:07;;;;;;;55.10;19.45;;;;;;;;;;5062982;28;20325;-60
2022/01/12 11:42:36;;;;;;;58.40;18.85;;;;;;;;;;5055265;28;20029;-64
2022/01/12 11:45:02;;;;;;;64.53;20.27;;;;;;;;;;5074381;28;20028;-63
2022/01/12 11:47:31;;;;;;;62.70;21.45;;;;;;;;;;5072824;28;20028;-64
2022/01/12 11:49:57;;;;;;;67.03;21.17;;;;;;;;;;5049265;28;20057;-64
2022/01/12 11:52:26;;;;;;;67.68;20.55;;;;;;;;;;5049799;28;20063;-64
2022/01/12 11:55:07;;;;;;;63.17;20.65;;;;;;;;;;5043272;28;20502;-64
2022/01/12 11:57:35;;;;;;;;;;;;;;;;;;5055547;28;20021;-64
2022/01/12 12:00:10;;;;;;;58.30;19.25;;;;;;;;;;5054266;28;19940;-66
2022/01/12 12:02:39;;;;;;;61.28;19.15;;;;;;;;;;5053750;28;20429;-65
2022/01/12 12:05:12;;;;;;;56.90;19.52;;;;;;;;;;5055720;28;20032;-65
2022/01/12 12:07:49;;;;;;;57.05;20.45;;;;;;;;;;5048265;28;20033;-66
2022/01/12 12:10:20;;;;;;;58.17;19.92;;;;;;;;;;5042302;28;20391;-66
2022/01/12 12:12:47;;;;;;;53.67;19.42;;;;;;;;;;5061272;28;20724;-66
2022/01/12 12:15:14;;;;;;;55.13;19.52;;;;;;;;;;5057782;28;20048;-63
2022/01/12 12:17:41;;;;;;;49.33;18.10;;;;;;;;;;5073496;28;20032;-64
2022/01/12 12:20:12;;;;;;;46.88;17.60;;;;;;;;;;5043591;28;20037;-64
2022/01/12 12:22:40;;;;;;;49.15;17.42;;;;;;;;;;5054182;28;20480;-64
2022/01/12 12:25:12;;;;;;;46.95;17.38;;;;;;;;;;5056152;28;20041;-66
2022/01/12 12:27:40;;;;;;;52.60;18.15;;;;;;;;;;5058951;28;20028;-66
2022/01/12 12:30:12;;;;;;;52.55;19.33;;;;;;;;;;5074212;28;20031;-68
2022/01/12 12:32:44;;;;;;;50.70;18.77;;;;;;;;;;5071469;28;20060;-67
2022/01/12 12:35:11;;;;;;;;;;;;;;;;;;5075214;28;20117;-67
2022/01/12 12:37:41;;;;;;;47.60;17.40;;;;;;;;;;5068464;28;19916;-64
2022/01/12 12:40:40;;;;;;;48.63;17.73;;;;;;;;;;5053803;28;20489;-64
2022/01/12 12:43:24;;;;;;;47.33;17.65;;;;;;;;;;5053443;28;20036;-66
2022/01/12 12:45:54;;;;;;;53.95;18.27;;;;;;;;;;5054852;28;20029;-66
2022/01/12 12:48:22;;;;;;;54.58;19.70;;;;;;;;;;5052722;28;20071;-65
2022/01/12 12:50:57;;;;;;;53.53;20.25;;;;;;;;;;5060184;28;20218;-62
2022/01/12 12:53:33;;;;;;;54.20;20.15;;;;;;;;;;5071251;28;20470;-64
2022/01/12 12:55:59;;;;;;;63.42;20.38;;;;;;;;;;5072362;28;20029;-65
2022/01/12 12:58:27;;;;;;;57.35;20.85;;;;;;;;;;5071684;28;20095;-66
2022/01/12 13:00:53;;;;;;;66.82;23.10;;;;;;;;;;5053764;28;20029;-66
2022/01/12 13:03:18;;;;;;;65.25;22.88;;;;;;;;;;5054787;28;20398;-65
2022/01/12 13:05:44;;;;;;;55.55;20.40;;;;;;;;;;5054858;28;20487;-66
2022/01/12 13:08:11;;;;;;;64.93;21.38;;;;;;;;;;5052204;28;20386;-65
2022/01/12 13:10:37;;;;;;;65.53;22.95;;;;;;;;;;5053751;28;20037;-66
2022/01/12 13:13:05;;;;;;;56.35;21.60;;;;;;;;;;5054825;28;20080;-68
2022/01/12 13:15:33;;;;;;;64.80;22.13;;;;;;;;;;5057308;28;20069;-68
2022/01/12 13:18:17;;;;;;;52.20;20.35;;;;;;;;;;5053086;28;20175;-67
2022/01/12 13:23:38;;;;;;;56.55;19.40;;;;;;;;;;5054722;28;20039;-64
2022/01/12 13:26:05;;;;;;;47.85;18.00;;;;;;;;;;5052870;28;20296;-64
2022/01/12 13:28:32;;;;;;;60.88;20.83;;;;;;;;;;5066194;28;20463;-65
2022/01/12 13:31:01;;;;;;;48.95;19.23;;;;;;;;;;5053008;28;20071;-65
2022/01/12 13:33:50;;;;;;;49.72;19.73;;;;;;;;;;5054722;28;20033;-66
2022/01/12 13:36:24;;;;;;;50.83;19.30;;;;;;;;;;5052357;28;20033;-66
2022/01/12 13:38:58;;;;;;;52.92;18.92;;;;;;;;;;5064223;28;20029;-64
2022/01/12 13:41:27;;;;;;;51.15;19.33;;;;;;;;;;5056284;28;20063;-64
2022/01/12 13:44:16;;;;;;;50.92;19.52;;;;;;;;;;5055117;28;20028;-64
2022/01/12 13:46:44;;;;;;;56.25;20.40;;;;;;;;;;5038386;28;20073;-64
2022/01/12 13:51:41;;;;;;;53.60;21.17;;;;;;;;;;5053098;28;20068;-66
2022/01/12 13:54:12;;;;;;;58.78;21.60;;;;;;;;;;5061247;28;20141;-66
2022/01/12 13:56:45;;;;;;;60.47;21.05;;;;;;;;;;5050116;28;20479;-64
2022/01/12 13:59:13;;;;;;;53.10;19.15;;;;;;;;;;5060541;28;20029;-66
2022/01/12 14:01:41;;;;;;;50.95;18.67;;;;;;;;;;5052685;28;20453;-63
2022/01/12 14:04:12;;;;;;;25.98;10.82;;;;;;;;;;5048024;28;20063;-67
2022/01/12 14:06:46;;;;;;;40.72;16.98;;;;;;;;;;5055091;28;20040;-63
2022/01/12 14:11:50;;;;;;;29.92;13.18;;;;;;;;;;5053316;28;20037;-66
2022/01/12 14:14:16;;;;;;;37.45;15.25;;;;;;;;;;5050601;28;20048;-65
2022/01/12 14:16:42;;;;;;;45.00;16.13;;;;;;;;;;5051491;28;20037;-65
2022/01/12 14:19:09;;;;;;;35.70;13.82;;;;;;;;;;5030987;28;20056;-66
2022/01/12 14:21:35;;;;;;;36.53;14.70;;;;;;;;;;5042711;28;20033;-66
2022/01/12 14:24:04;;;;;;;31.92;13.18;;;;;;;;;;5064584;28;20036;-66
2022/01/12 14:26:35;;;;;;;33.92;12.55;;;;;;;;;;5055467;28;20417;-64
2022/01/12 14:29:00;;;;;;;35.27;14.20;;;;;;;;;;5054267;28;20028;-64
2022/01/12 14:31:26;;;;;;;42.70;16.52;;;;;;;;;;5052554;28;20536;-64
2022/01/12 14:33:53;;;;;;;48.63;19.50;;;;;;;;;;5030112;28;20029;-68
2022/01/12 14:36:19;;;;;;;49.33;17.67;;;;;;;;;;5040168;28;20025;-66
2022/01/12 14:38:45;;;;;;;50.10;18.48;;;;;;;;;;5070107;28;20110;-65
2022/01/12 14:41:11;;;;;;;51.40;17.92;;;;;;;;;;5068768;28;20043;-65
2022/01/12 14:43:37;;;;;;;50.05;18.35;;;;;;;;;;5034777;28;20032;-66
2022/01/12 14:46:03;;;;;;;46.20;19.00;;;;;;;;;;5054515;28;20545;-63
2022/01/12 14:48:28;;;;;;;47.78;18.63;;;;;;;;;;5044473;28;20036;-64
2022/01/12 14:50:55;;;;;;;49.97;19.55;;;;;;;;;;5051185;28;20475;-63
2022/01/12 14:53:22;;;;;;;57.38;20.98;;;;;;;;;;5053618;28;20033;-66
2022/01/12 14:55:54;;;;;;;53.40;20.80;;;;;;;;;;5044506;28;20115;-66
2022/01/12 14:58:20;;;;;;;65.68;23.35;;;;;;;;;;5047881;28;20470;-63
2022/01/12 15:00:47;;;;;;;60.15;22.38;;;;;;;;;;5050994;28;20036;-64
2022/01/12 15:03:14;;;;;;;67.40;22.42;;;;;;;;;;5050560;28;20473;-63
2022/01/12 15:05:41;;;;;;;65.65;23.05;;;;;;;;;;5051864;28;20033;-64
2022/01/12 15:08:07;;;;;;;57.33;22.35;;;;;;;;;;5050444;28;20037;-67
2022/01/12 15:10:34;;;;;;;61.97;22.92;;;;;;;;;;5051587;28;20029;-68
2022/01/12 15:13:14;;;;;;;54.65;19.98;;;;;;;;;;5065500;28;20086;-67
2022/01/12 15:15:39;;;;;;;55.42;20.30;;;;;;;;;;5031487;28;20044;-66
2022/01/12 15:18:04;;;;;;;62.83;21.17;;;;;;;;;;5030434;28;20037;-66
2022/01/12 15:20:30;;;;;;;55.47;20.70;;;;;;;;;;5048895;28;20048;-63
2022/01/12 15:22:55;;;;;;;57.42;20.90;;;;;;;;;;5058554;28;20103;-65
2022/01/12 15:25:22;;;;;;;58.65;21.80;;;;;;;;;;5064476;28;20071;-65
2022/01/12 15:27:48;;;;;;;56.20;20.17;;;;;;;;;;5050670;28;20120;-65
2022/01/12 15:30:17;;;;;;;53.05;19.08;;;;;;;;;;5051002;28;20083;-66
2022/01/12 15:32:43;;;;;;;52.97;19.48;;;;;;;;;;5054816;28;20071;-66
2022/01/12 15:35:09;;;;;;;56.15;20.17;;;;;;;;;;5059258;28;20175;-64
2022/01/12 15:37:34;;;;;;;49.28;19.90;;;;;;;;;;5067973;28;20032;-64
2022/01/12 15:40:02;;;;;;;56.40;20.10;;;;;;;;;;5060750;28;20028;-66
2022/01/12 15:42:28;;;;;;;52.38;19.95;;;;;;;;;;5050554;28;20135;-67
2022/01/12 15:44:55;;;;;;;47.97;19.95;;;;;;;;;;5059174;28;20028;-64
2022/01/12 15:47:20;;;;;;;52.95;22.50;;;;;;;;;;5040473;28;20041;-67
2022/01/12 15:49:45;;;;;;;49.80;20.95;;;;;;;;;;5068734;28;20037;-67
2022/01/12 15:52:11;;;;;;;51.33;20.40;;;;;;;;;;5070173;28;20037;-65
2022/01/12 15:54:36;;;;;;;48.00;21.42;;;;;;;;;;5053502;28;20045;-65
2022/01/12 15:57:05;;;;;;;45.03;20.05;;;;;;;;;;5050242;28;20029;-66
2022/01/12 15:59:31;;;;;;;51.38;20.83;;;;;;;;;;5045505;28;20025;-64
2022/01/12 16:01:57;;;;;;;53.38;22.20;;;;;;;;;;5052765;28;20044;-67